createdAt,value
2022-12-23T00:00:11.568Z,506.00
2022-12-23T00:01:11.544Z,502.00
2022-12-23T00:02:11.583Z,502.00
2022-12-23T00:03:11.638Z,505.00
2022-12-23T00:04:11.581Z,507.00
2022-12-23T00:05:11.452Z,508.00
2022-12-23T00:06:11.438Z,506.00
2022-12-23T00:07:11.420Z,505.00
2022-12-23T00:08:11.380Z,508.00
2022-12-23T00:09:11.368Z,503.00
2022-12-23T00:10:11.356Z,502.00
2022-12-23T00:11:11.319Z,504.00
2022-12-23T00:12:11.293Z,511.00
2022-12-23T00:13:11.769Z,504.00
2022-12-23T00:14:14.800Z,504.00
2022-12-23T00:15:12.198Z,505.00
2022-12-23T00:16:11.208Z,505.00
2022-12-23T00:17:21.936Z,505.00
2022-12-23T00:18:12.120Z,505.00
2022-12-23T00:19:11.088Z,505.00
2022-12-23T00:20:11.086Z,504.00
2022-12-23T00:21:11.087Z,505.00
2022-12-23T00:22:11.080Z,508.00
2022-12-23T00:23:11.008Z,506.00
2022-12-23T00:24:10.972Z,510.00
2022-12-23T00:25:10.953Z,503.00
2022-12-23T00:26:10.920Z,506.00
2022-12-23T00:27:10.924Z,502.00
2022-12-23T00:28:10.888Z,504.00
2022-12-23T00:29:10.868Z,512.00
2022-12-23T00:30:10.823Z,505.00
2022-12-23T00:31:10.805Z,508.00
2022-12-23T00:32:10.889Z,503.00
2022-12-23T00:33:10.762Z,503.00
2022-12-23T00:34:10.765Z,503.00
2022-12-23T00:35:10.710Z,504.00
2022-12-23T00:36:10.712Z,505.00
2022-12-23T00:37:10.659Z,505.00
2022-12-23T00:38:10.624Z,506.00
2022-12-23T00:39:10.593Z,503.00
2022-12-23T00:40:10.597Z,504.00
2022-12-23T00:41:10.539Z,502.00
2022-12-23T00:42:10.530Z,503.00
2022-12-23T00:43:10.474Z,500.00
2022-12-23T00:44:10.560Z,505.00
2022-12-23T00:45:10.432Z,506.00
2022-12-23T00:46:10.442Z,508.00
2022-12-23T00:47:10.392Z,501.00
2022-12-23T00:48:10.403Z,508.00
2022-12-23T00:49:10.339Z,506.00
2022-12-23T00:50:10.329Z,504.00
2022-12-23T00:51:10.286Z,504.00
2022-12-23T00:52:10.275Z,505.00
2022-12-23T00:53:10.251Z,506.00
2022-12-23T00:54:10.227Z,507.00
2022-12-23T00:55:10.185Z,503.00
2022-12-23T00:56:10.165Z,502.00
2022-12-23T00:57:10.180Z,504.00
2022-12-23T00:58:10.110Z,505.00
2022-12-23T02:16:08.129Z,507.00
2022-12-23T02:17:08.199Z,506.00
2022-12-23T02:18:08.069Z,503.00
2022-12-23T02:19:08.054Z,507.00
2022-12-23T02:20:08.020Z,507.00
2022-12-23T02:21:08.019Z,510.00
2022-12-23T02:22:07.990Z,505.00
2022-12-23T02:23:07.954Z,506.00
2022-12-23T02:24:07.942Z,507.00
2022-12-23T02:25:07.921Z,511.00
2022-12-23T02:26:07.920Z,504.00
2022-12-23T02:27:07.880Z,509.00
2022-12-23T02:28:07.862Z,501.00
2022-12-23T02:29:07.839Z,506.00
2022-12-23T02:30:07.799Z,507.00
2022-12-23T02:31:07.844Z,506.00
2022-12-23T02:32:07.786Z,508.00
2022-12-23T02:33:07.739Z,506.00
2022-12-23T02:34:07.737Z,506.00
2022-12-23T02:35:07.686Z,506.00
2022-12-23T02:36:07.748Z,506.00
2022-12-23T02:37:07.667Z,503.00
2022-12-23T02:38:07.640Z,506.00
2022-12-23T02:39:07.629Z,504.00
2022-12-23T02:40:07.600Z,504.00
2022-12-23T02:41:07.590Z,502.00
2022-12-23T02:42:07.564Z,500.00
2022-12-23T02:43:07.549Z,507.00
2022-12-23T02:44:07.523Z,509.00
2022-12-23T02:45:07.487Z,511.00
2022-12-23T02:46:07.496Z,505.00
2022-12-23T02:47:07.481Z,508.00
2022-12-23T02:48:07.425Z,506.00
2022-12-23T02:49:07.424Z,510.00
2022-12-23T02:50:07.386Z,507.00
2022-12-23T02:51:07.375Z,507.00
2022-12-23T02:52:07.351Z,511.00
2022-12-23T02:53:07.325Z,508.00
2022-12-23T02:54:07.318Z,509.00
2022-12-23T02:55:07.285Z,508.00
2022-12-23T02:56:07.281Z,505.00
2022-12-23T02:57:07.242Z,505.00
2022-12-23T02:58:07.229Z,506.00
2022-12-23T02:59:07.216Z,507.00
2022-12-23T03:00:07.201Z,505.00
2022-12-23T03:01:07.244Z,509.00
2022-12-23T03:02:07.320Z,507.00
2022-12-23T03:03:07.260Z,507.00
2022-12-23T03:04:07.246Z,510.00
2022-12-23T03:05:07.076Z,506.00
2022-12-23T03:06:07.097Z,508.00
2022-12-23T03:07:08.147Z,508.00
2022-12-23T03:08:07.045Z,508.00
2022-12-23T03:09:07.022Z,506.00
2022-12-23T03:10:07.011Z,504.00
2022-12-23T03:11:06.994Z,502.00
2022-12-23T03:12:06.987Z,508.00
2022-12-23T03:13:06.968Z,506.00
2022-12-23T03:14:06.971Z,504.00
2022-12-23T03:15:06.923Z,505.00
2022-12-23T03:16:06.958Z,504.00
2022-12-23T03:17:06.887Z,504.00
2022-12-23T03:18:06.856Z,506.00
2022-12-23T03:19:06.866Z,503.00
2022-12-23T03:20:06.861Z,508.00
2022-12-23T03:21:06.834Z,507.00
2022-12-23T03:22:06.824Z,505.00
2022-12-23T03:23:06.790Z,509.00
2022-12-23T03:24:06.766Z,510.00
2022-12-23T03:25:06.772Z,503.00
2022-12-23T03:26:06.753Z,505.00
2022-12-23T03:27:06.731Z,504.00
2022-12-23T03:28:06.715Z,505.00
2022-12-23T03:29:06.689Z,509.00
2022-12-23T03:30:06.684Z,509.00
2022-12-23T03:31:06.678Z,504.00
2022-12-23T03:32:06.638Z,505.00
2022-12-23T03:33:06.601Z,504.00
2022-12-23T03:34:06.595Z,508.00
2022-12-23T03:35:06.603Z,502.00
2022-12-23T03:36:06.562Z,503.00
2022-12-23T03:37:06.571Z,504.00
2022-12-23T03:38:06.522Z,506.00
2022-12-23T03:39:06.499Z,505.00
2022-12-23T03:40:06.507Z,511.00
2022-12-23T03:41:06.469Z,504.00
2022-12-23T03:42:06.464Z,505.00
2022-12-23T03:43:06.442Z,503.00
2022-12-23T03:44:06.419Z,504.00
2022-12-23T03:46:07.390Z,507.00
2022-12-23T03:47:06.340Z,502.00
2022-12-23T03:48:06.318Z,505.00
2022-12-23T03:49:06.275Z,505.00
2022-12-23T03:50:06.272Z,505.00
2022-12-23T03:51:06.195Z,504.00
2022-12-23T03:52:06.187Z,507.00
2022-12-23T03:53:06.140Z,506.00
2022-12-23T03:54:06.141Z,505.00
2022-12-23T03:55:06.111Z,500.00
2022-12-23T03:56:06.072Z,506.00
2022-12-23T03:57:06.042Z,505.00
2022-12-23T03:58:06.028Z,508.00
2022-12-23T03:59:06.000Z,504.00
2022-12-23T04:00:05.995Z,504.00
2022-12-23T04:01:05.952Z,504.00
2022-12-23T04:02:05.999Z,509.00
2022-12-23T04:03:05.901Z,506.00
2022-12-23T04:04:05.923Z,505.00
2022-12-23T04:05:05.836Z,501.00
2022-12-23T04:06:05.779Z,507.00
2022-12-23T04:07:05.745Z,502.00
2022-12-23T04:08:05.734Z,505.00
2022-12-23T04:09:05.717Z,505.00
2022-12-23T04:10:05.697Z,508.00
2022-12-23T04:11:05.686Z,507.00
2022-12-23T04:12:05.648Z,503.00
2022-12-23T04:13:05.612Z,505.00
2022-12-23T04:14:05.597Z,504.00
2022-12-23T04:15:12.348Z,505.00
2022-12-23T04:16:06.578Z,505.00
2022-12-23T04:17:05.511Z,506.00
2022-12-23T04:18:05.497Z,506.00
2022-12-23T04:19:05.454Z,506.00
2022-12-23T04:20:05.426Z,509.00
2022-12-23T04:21:05.408Z,503.00
2022-12-23T04:22:05.383Z,508.00
2022-12-23T04:23:05.319Z,504.00
2022-12-23T04:24:05.313Z,504.00
2022-12-23T04:25:05.288Z,503.00
2022-12-23T04:26:05.273Z,508.00
2022-12-23T04:27:05.220Z,503.00
2022-12-23T04:28:05.201Z,506.00
2022-12-23T04:29:05.153Z,507.00
2022-12-23T04:30:05.160Z,505.00
2022-12-23T04:31:05.172Z,503.00
2022-12-23T04:32:05.090Z,502.00
2022-12-23T04:33:05.063Z,509.00
2022-12-23T04:34:05.044Z,507.00
2022-12-23T04:35:05.028Z,503.00
2022-12-23T04:36:05.031Z,503.00
2022-12-23T04:37:04.972Z,505.00
2022-12-23T04:38:04.953Z,503.00
2022-12-23T04:39:04.922Z,504.00
2022-12-23T04:40:04.907Z,505.00
2022-12-23T04:41:04.871Z,506.00
2022-12-23T04:42:04.851Z,506.00
2022-12-23T04:43:04.807Z,502.00
2022-12-23T04:44:04.801Z,507.00
2022-12-23T04:45:04.789Z,504.00
2022-12-23T04:46:04.765Z,503.00
2022-12-23T04:47:04.799Z,502.00
2022-12-23T04:48:04.707Z,507.00
2022-12-23T04:49:04.667Z,504.00
2022-12-23T04:50:04.670Z,506.00
2022-12-23T04:51:04.623Z,507.00
2022-12-23T04:52:04.605Z,507.00
2022-12-23T04:53:04.584Z,507.00
2022-12-23T04:54:04.559Z,503.00
2022-12-23T04:55:04.520Z,505.00
2022-12-23T04:56:04.505Z,505.00
2022-12-23T04:57:04.479Z,507.00
2022-12-23T04:58:04.501Z,502.00
2022-12-23T04:59:04.443Z,505.00
2022-12-23T05:00:04.415Z,508.00
2022-12-23T05:01:04.459Z,509.00
2022-12-23T05:02:04.549Z,507.00
2022-12-23T05:03:04.502Z,502.00
2022-12-23T05:04:04.310Z,501.00
2022-12-23T05:05:04.292Z,505.00
2022-12-23T05:06:04.290Z,507.00
2022-12-23T05:07:04.223Z,506.00
2022-12-23T05:08:04.215Z,503.00
2022-12-23T05:09:04.175Z,503.00
2022-12-23T05:10:04.148Z,505.00
2022-12-23T05:11:04.147Z,504.00
2022-12-23T05:12:04.110Z,505.00
2022-12-23T05:13:04.056Z,500.00
2022-12-23T05:14:04.031Z,503.00
2022-12-23T05:15:04.031Z,502.00
2022-12-23T05:16:04.074Z,507.00
2022-12-23T05:17:07.739Z,504.00
2022-12-23T05:18:03.943Z,504.00
2022-12-23T05:19:03.909Z,504.00
2022-12-23T05:20:03.882Z,504.00
2022-12-23T05:21:03.877Z,502.00
2022-12-23T05:22:03.841Z,506.00
2022-12-23T05:23:03.826Z,505.00
2022-12-23T05:24:03.806Z,505.00
2022-12-23T05:25:03.763Z,508.00
2022-12-23T05:26:03.772Z,506.00
2022-12-23T05:27:03.730Z,506.00
2022-12-23T05:28:03.682Z,508.00
2022-12-23T05:29:03.661Z,503.00
2022-12-23T05:30:03.634Z,503.00
2022-12-23T05:31:03.735Z,505.00
2022-12-23T05:32:03.720Z,502.00
2022-12-23T05:33:03.612Z,504.00
2022-12-23T05:34:06.646Z,506.00
2022-12-23T05:35:03.531Z,506.00
2022-12-23T05:36:03.491Z,506.00
2022-12-23T05:37:03.472Z,501.00
2022-12-23T05:38:03.439Z,505.00
2022-12-23T05:39:03.425Z,501.00
2022-12-23T05:40:03.416Z,502.00
2022-12-23T05:41:03.372Z,504.00
2022-12-23T05:42:03.350Z,504.00
2022-12-23T05:43:03.322Z,505.00
2022-12-23T05:44:03.291Z,508.00
2022-12-23T05:45:03.265Z,505.00
2022-12-23T05:46:03.309Z,507.00
2022-12-23T05:47:03.223Z,507.00
2022-12-23T05:48:03.194Z,512.00
2022-12-23T05:49:03.155Z,510.00
2022-12-23T05:50:03.155Z,513.00
2022-12-23T05:51:03.097Z,507.00
2022-12-23T05:52:03.071Z,507.00
2022-12-23T05:53:03.223Z,510.00
2022-12-23T05:54:03.022Z,504.00
2022-12-23T05:55:02.997Z,503.00
2022-12-23T05:56:02.957Z,505.00
2022-12-23T05:57:02.957Z,505.00
2022-12-23T05:58:02.947Z,507.00
2022-12-23T05:59:02.888Z,510.00
2022-12-23T06:00:02.876Z,505.00
2022-12-23T06:01:02.831Z,505.00
2022-12-23T06:02:02.878Z,506.00
2022-12-23T06:03:03.006Z,503.00
2022-12-23T06:04:02.962Z,501.00
2022-12-23T06:05:02.741Z,505.00
2022-12-23T06:06:02.683Z,505.00
2022-12-23T06:07:02.694Z,504.00
2022-12-23T06:08:02.666Z,504.00
2022-12-23T06:09:02.639Z,504.00
2022-12-23T06:10:02.623Z,501.00
2022-12-23T06:11:02.566Z,504.00
2022-12-23T06:12:02.539Z,506.00
2022-12-23T06:13:02.543Z,504.00
2022-12-23T06:14:02.497Z,509.00
2022-12-23T06:15:02.482Z,509.00
2022-12-23T06:16:02.453Z,508.00
2022-12-23T06:17:02.526Z,508.00
2022-12-23T06:18:02.360Z,506.00
2022-12-23T06:19:02.321Z,506.00
2022-12-23T06:20:02.286Z,506.00
2022-12-23T06:21:02.298Z,512.00
2022-12-23T06:22:02.247Z,503.00
2022-12-23T06:23:02.207Z,506.00
2022-12-23T06:24:02.202Z,507.00
2022-12-23T06:25:02.170Z,507.00
2022-12-23T06:26:02.114Z,505.00
2022-12-23T06:27:02.119Z,504.00
2022-12-23T06:28:02.072Z,505.00
2022-12-23T06:29:02.069Z,504.00
2022-12-23T06:30:02.038Z,505.00
2022-12-23T06:31:01.994Z,510.00
2022-12-23T06:32:02.149Z,510.00
2022-12-23T06:33:01.970Z,466.00
2022-12-23T06:34:01.929Z,418.00
2022-12-23T06:35:01.909Z,409.00
2022-12-23T06:36:01.883Z,417.00
2022-12-23T06:37:01.877Z,465.00
2022-12-23T06:38:01.833Z,500.00
2022-12-23T06:39:02.279Z,508.00
2022-12-23T06:40:01.849Z,510.00
2022-12-23T06:41:01.796Z,510.00
2022-12-23T06:42:02.012Z,510.00
2022-12-23T06:43:01.737Z,500.00
2022-12-23T06:44:01.710Z,500.00
2022-12-23T06:45:01.710Z,501.00
2022-12-23T06:46:01.746Z,498.00
2022-12-23T06:47:01.707Z,478.00
2022-12-23T06:48:01.649Z,463.00
2022-12-23T06:49:03.204Z,503.00
2022-12-23T06:50:01.627Z,507.00
2022-12-23T06:51:01.597Z,516.00
2022-12-23T06:52:01.590Z,499.00
2022-12-23T06:53:01.603Z,500.00
2022-12-23T06:54:01.576Z,508.00
2022-12-23T06:55:01.575Z,500.00
2022-12-23T06:56:01.539Z,538.00
2022-12-23T06:57:01.535Z,555.00
2022-12-23T06:58:01.502Z,570.00
2022-12-23T06:59:01.509Z,575.00
2022-12-23T07:00:01.478Z,570.00
2022-12-23T07:01:01.527Z,586.00
2022-12-23T07:02:01.570Z,592.00
2022-12-23T07:03:01.546Z,597.00
2022-12-23T07:04:01.444Z,616.00
2022-12-23T07:05:01.364Z,607.00
2022-12-23T07:06:01.358Z,621.00
2022-12-23T07:07:01.348Z,626.00
2022-12-23T07:08:01.309Z,619.00
2022-12-23T07:09:01.275Z,631.00
2022-12-23T07:10:01.268Z,635.00
2022-12-23T07:11:01.262Z,635.00
2022-12-23T07:12:01.239Z,643.00
2022-12-23T07:13:01.244Z,645.00
2022-12-23T07:14:01.339Z,649.00
2022-12-23T07:15:01.213Z,650.00
2022-12-23T07:16:01.131Z,655.00
2022-12-23T07:17:02.043Z,656.00
2022-12-23T07:18:01.172Z,661.00
2022-12-23T07:19:01.072Z,665.00
2022-12-23T07:20:01.050Z,651.00
2022-12-23T07:21:00.996Z,655.00
2022-12-23T07:22:01.000Z,650.00
2022-12-23T07:23:01.011Z,640.00
2022-12-23T07:24:00.962Z,658.00
2022-12-23T07:25:00.895Z,658.00
2022-12-23T07:26:00.886Z,645.00
2022-12-23T07:27:00.878Z,636.00
2022-12-23T07:28:00.834Z,636.00
2022-12-23T07:29:00.912Z,638.00
2022-12-23T07:30:00.784Z,654.00
2022-12-23T07:31:00.778Z,651.00
2022-12-23T07:32:00.856Z,650.00
2022-12-23T07:33:00.710Z,642.00
2022-12-23T07:34:00.669Z,650.00
2022-12-23T07:35:00.659Z,664.00
2022-12-23T07:36:00.613Z,654.00
2022-12-23T07:37:00.576Z,646.00
2022-12-23T07:38:00.617Z,648.00
2022-12-23T07:39:00.547Z,659.00
2022-12-23T07:40:06.472Z,662.00
2022-12-23T07:41:01.502Z,663.00
2022-12-23T07:42:25.028Z,664.00
2022-12-23T07:43:01.396Z,663.00
2022-12-23T07:44:00.458Z,665.00
2022-12-23T07:45:00.374Z,665.00
2022-12-23T07:46:01.118Z,685.00
2022-12-23T07:47:00.339Z,711.00
2022-12-23T07:48:00.288Z,742.00
2022-12-23T07:49:00.306Z,729.00
2022-12-23T07:50:00.240Z,703.00
2022-12-23T07:51:00.209Z,663.00
2022-12-23T07:52:00.184Z,624.00
2022-12-23T07:53:00.193Z,636.00
2022-12-23T07:54:00.186Z,646.00
2022-12-23T07:55:00.167Z,655.00
2022-12-23T07:56:00.161Z,647.00
2022-12-23T09:02:58.753Z,664.00
2022-12-23T09:03:58.715Z,677.00
2022-12-23T09:04:58.568Z,663.00
2022-12-23T09:05:58.532Z,663.00
2022-12-23T09:06:58.478Z,667.00
2022-12-23T09:07:58.446Z,652.00
2022-12-23T09:08:58.450Z,670.00
2022-12-23T09:09:58.398Z,656.00
2022-12-23T09:10:58.353Z,656.00
2022-12-23T09:11:58.343Z,662.00
2022-12-23T09:12:58.375Z,660.00
2022-12-23T09:13:58.243Z,656.00
2022-12-23T09:14:58.347Z,659.00
2022-12-23T09:15:58.346Z,662.00
2022-12-23T09:16:58.146Z,675.00
2022-12-23T09:17:58.129Z,671.00
2022-12-23T09:18:58.111Z,676.00
2022-12-23T09:19:58.116Z,674.00
2022-12-23T09:20:58.034Z,667.00
2022-12-23T09:21:58.031Z,664.00
2022-12-23T09:22:57.967Z,651.00
2022-12-23T09:23:57.945Z,666.00
2022-12-23T09:25:04.620Z,657.00
2022-12-23T09:26:57.868Z,651.00
2022-12-23T09:27:57.875Z,658.00
2022-12-23T09:28:57.823Z,643.00
2022-12-23T09:29:57.781Z,640.00
2022-12-23T09:30:57.729Z,646.00
2022-12-23T09:31:57.804Z,646.00
2022-12-23T09:32:57.655Z,647.00
2022-12-23T09:33:57.644Z,650.00
2022-12-23T09:34:57.605Z,653.00
2022-12-23T09:35:57.571Z,653.00
2022-12-23T09:36:57.548Z,659.00
2022-12-23T09:37:57.521Z,649.00
2022-12-23T09:38:57.473Z,652.00
2022-12-23T09:39:57.423Z,658.00
2022-12-23T09:40:57.368Z,659.00
2022-12-23T09:41:57.341Z,674.00
2022-12-23T09:42:57.298Z,677.00
2022-12-23T09:43:57.243Z,682.00
2022-12-23T09:44:57.231Z,682.00
2022-12-23T09:45:57.256Z,678.00
2022-12-23T09:46:57.281Z,663.00
2022-12-23T09:47:57.108Z,688.00
2022-12-23T09:48:57.020Z,679.00
2022-12-23T09:49:57.008Z,691.00
2022-12-23T09:50:56.927Z,683.00
2022-12-23T09:51:56.897Z,676.00
2022-12-23T09:52:56.847Z,665.00
2022-12-23T09:53:56.806Z,662.00
2022-12-23T09:54:56.782Z,675.00
2022-12-23T09:55:56.732Z,652.00
2022-12-23T09:56:56.680Z,666.00
2022-12-23T09:57:56.669Z,653.00
2022-12-23T09:58:56.585Z,656.00
2022-12-23T09:59:56.576Z,663.00
2022-12-23T10:00:56.534Z,660.00
2022-12-23T10:01:56.562Z,658.00
2022-12-23T10:02:56.867Z,653.00
2022-12-23T10:03:56.476Z,663.00
2022-12-23T10:04:56.333Z,660.00
2022-12-23T10:05:56.341Z,653.00
2022-12-23T10:06:59.363Z,649.00
2022-12-23T10:08:56.124Z,650.00
2022-12-23T10:09:56.099Z,651.00
2022-12-23T10:10:56.084Z,650.00
2022-12-23T10:11:56.018Z,649.00
2022-12-23T10:12:56.018Z,649.00
2022-12-23T10:13:55.910Z,651.00
2022-12-23T10:14:55.872Z,650.00
2022-12-23T10:15:55.996Z,647.00
2022-12-23T10:16:55.790Z,648.00
2022-12-23T10:17:55.748Z,644.00
2022-12-23T10:18:55.680Z,644.00
2022-12-23T10:19:55.644Z,647.00
2022-12-23T10:20:55.637Z,638.00
2022-12-23T10:21:55.550Z,651.00
2022-12-23T10:22:55.498Z,638.00
2022-12-23T10:23:55.467Z,640.00
2022-12-23T10:24:55.436Z,638.00
2022-12-23T10:25:55.402Z,634.00
2022-12-23T10:26:55.387Z,638.00
2022-12-23T10:27:55.320Z,636.00
2022-12-23T10:28:55.251Z,635.00
2022-12-23T10:29:55.226Z,638.00
2022-12-23T10:31:23.852Z,641.00
2022-12-23T10:31:56.177Z,641.00
2022-12-23T10:32:55.109Z,641.00
2022-12-23T10:33:55.066Z,641.00
2022-12-23T10:34:55.032Z,634.00
2022-12-23T10:35:55.086Z,637.00
2022-12-23T10:36:55.080Z,634.00
2022-12-23T10:37:54.902Z,638.00
2022-12-23T10:38:54.882Z,638.00
2022-12-23T10:39:54.801Z,640.00
2022-12-23T10:40:54.805Z,633.00
2022-12-23T10:41:54.747Z,635.00
2022-12-23T10:42:54.700Z,640.00
2022-12-23T10:43:54.737Z,634.00
2022-12-23T10:44:54.635Z,635.00
2022-12-23T10:45:54.609Z,630.00
2022-12-23T10:46:54.605Z,625.00
2022-12-23T10:47:54.483Z,626.00
2022-12-23T10:48:54.450Z,618.00
2022-12-23T10:49:54.437Z,625.00
2022-12-23T10:50:54.342Z,625.00
2022-12-23T10:51:54.307Z,628.00
2022-12-23T10:52:54.368Z,625.00
2022-12-23T10:53:54.235Z,622.00
2022-12-23T10:54:54.161Z,632.00
2022-12-23T10:55:54.125Z,631.00
2022-12-23T10:56:54.106Z,621.00
2022-12-23T10:57:54.029Z,626.00
2022-12-23T10:58:53.975Z,630.00
2022-12-23T10:59:53.945Z,628.00
2022-12-23T11:00:53.987Z,625.00
2022-12-23T11:01:54.092Z,624.00
2022-12-23T11:02:53.943Z,621.00
2022-12-23T11:03:53.790Z,619.00
2022-12-23T11:04:53.684Z,620.00
2022-12-23T11:05:53.674Z,617.00
2022-12-23T11:07:18.288Z,615.00
2022-12-23T11:07:54.606Z,619.00
2022-12-23T11:08:53.542Z,614.00
2022-12-23T11:09:53.519Z,611.00
2022-12-23T11:10:53.442Z,605.00
2022-12-23T11:11:53.403Z,607.00
2022-12-23T11:12:53.395Z,602.00
2022-12-23T11:13:53.309Z,610.00
2022-12-23T11:14:53.260Z,602.00
2022-12-23T11:15:53.258Z,599.00
2022-12-23T11:16:53.241Z,598.00
2022-12-23T11:17:53.127Z,599.00
2022-12-23T11:18:53.090Z,598.00
2022-12-23T11:19:53.119Z,600.00
2022-12-23T11:20:52.989Z,597.00
2022-12-23T11:21:52.958Z,600.00
2022-12-23T11:22:52.928Z,596.00
2022-12-23T11:23:52.869Z,595.00
2022-12-23T11:24:52.827Z,594.00
2022-12-23T11:25:52.809Z,590.00
2022-12-23T11:26:52.752Z,597.00
2022-12-23T11:27:52.705Z,595.00
2022-12-23T11:28:52.703Z,593.00
2022-12-23T11:29:52.638Z,594.00
2022-12-23T11:30:56.292Z,594.00
2022-12-23T11:31:52.625Z,594.00
2022-12-23T11:32:52.614Z,592.00
2022-12-23T11:33:52.453Z,593.00
2022-12-23T11:34:52.438Z,592.00
2022-12-23T11:35:52.367Z,595.00
2022-12-23T11:36:55.141Z,589.00
2022-12-23T11:37:52.289Z,590.00
2022-12-23T11:38:52.206Z,591.00
2022-12-23T11:39:52.170Z,592.00
2022-12-23T11:40:52.150Z,592.00
2022-12-23T11:41:52.131Z,590.00
2022-12-23T11:42:55.260Z,593.00
2022-12-23T11:43:51.970Z,593.00
2022-12-23T11:44:51.935Z,593.00
2022-12-23T11:45:51.940Z,595.00
2022-12-23T11:46:51.834Z,595.00
2022-12-23T11:47:51.771Z,599.00
2022-12-23T11:48:54.842Z,596.00
2022-12-23T11:49:51.699Z,596.00
2022-12-23T11:50:51.643Z,597.00
2022-12-23T11:51:51.570Z,598.00
2022-12-23T11:52:51.524Z,605.00
2022-12-23T11:53:51.466Z,609.00
2022-12-23T11:54:54.567Z,602.00
2022-12-23T11:55:51.356Z,603.00
2022-12-23T11:56:51.386Z,603.00
2022-12-23T11:57:51.292Z,603.00
2022-12-23T11:58:51.214Z,603.00
2022-12-23T11:59:51.175Z,604.00
2022-12-23T12:00:55.609Z,601.00
2022-12-23T12:01:51.155Z,601.00
2022-12-23T12:02:51.135Z,594.00
2022-12-23T12:03:51.004Z,601.00
2022-12-23T12:04:50.946Z,590.00
2022-12-23T12:05:50.903Z,591.00
2022-12-23T12:06:56.134Z,588.00
2022-12-23T12:07:51.837Z,595.00
2022-12-23T12:08:50.775Z,587.00
2022-12-23T12:09:50.747Z,585.00
2022-12-23T12:10:50.685Z,584.00
2022-12-23T12:11:50.655Z,583.00
2022-12-23T12:12:54.620Z,590.00
2022-12-23T12:13:50.574Z,590.00
2022-12-23T12:14:50.567Z,591.00
2022-12-23T12:15:50.483Z,593.00
2022-12-23T12:16:50.580Z,595.00
2022-12-23T12:17:50.398Z,600.00
2022-12-23T12:18:55.101Z,601.00
2022-12-23T12:19:51.315Z,602.00
2022-12-23T12:20:50.242Z,602.00
2022-12-23T12:21:50.209Z,600.00
2022-12-23T12:22:50.251Z,599.00
2022-12-23T12:23:55.436Z,592.00
2022-12-23T12:24:51.226Z,602.00
2022-12-23T19:58:43.813Z,507.00
2022-12-23T19:59:43.785Z,505.00
2022-12-23T20:00:43.743Z,505.00
2022-12-23T20:01:43.778Z,506.00
2022-12-23T20:02:43.703Z,504.00
2022-12-23T20:03:43.634Z,508.00
2022-12-23T20:04:43.613Z,504.00
2022-12-23T20:05:43.567Z,506.00
2022-12-23T20:06:43.533Z,505.00
2022-12-23T20:07:43.503Z,506.00
2022-12-23T20:08:43.464Z,502.00
2022-12-23T20:09:43.481Z,503.00
2022-12-23T20:10:43.426Z,503.00
2022-12-23T20:11:43.357Z,507.00
2022-12-23T20:12:43.325Z,503.00
2022-12-23T20:13:43.274Z,502.00
2022-12-23T20:14:43.263Z,506.00
2022-12-23T20:15:43.252Z,502.00
2022-12-23T20:16:43.189Z,503.00
2022-12-23T20:17:43.146Z,507.00
2022-12-23T20:18:43.109Z,504.00
2022-12-23T20:19:46.075Z,503.00
2022-12-23T20:20:43.058Z,508.00
2022-12-23T20:21:43.017Z,508.00
2022-12-23T20:22:42.999Z,500.00
2022-12-23T20:23:42.943Z,505.00
2022-12-23T20:24:42.896Z,503.00
2022-12-23T20:25:42.858Z,502.00
2022-12-23T20:26:42.826Z,506.00
2022-12-23T20:27:42.809Z,503.00
2022-12-23T20:28:42.816Z,505.00
2022-12-23T20:29:42.789Z,504.00
2022-12-23T20:30:42.744Z,500.00
2022-12-23T20:31:42.699Z,505.00
2022-12-23T20:32:42.630Z,508.00
2022-12-23T20:33:42.601Z,501.00
2022-12-23T20:34:42.589Z,503.00
2022-12-23T20:35:42.520Z,505.00
2022-12-23T20:36:42.617Z,508.00
2022-12-23T20:37:42.470Z,505.00
2022-12-23T20:38:42.429Z,503.00
2022-12-23T20:39:42.417Z,505.00
2022-12-23T20:40:42.407Z,508.00
2022-12-23T20:41:42.362Z,503.00
2022-12-23T20:42:42.296Z,502.00
2022-12-23T20:43:42.602Z,507.00
2022-12-23T20:44:42.240Z,509.00
2022-12-23T20:45:42.201Z,510.00
2022-12-23T20:46:42.239Z,506.00
2022-12-23T20:47:42.173Z,504.00
2022-12-23T20:48:42.130Z,503.00
2022-12-23T20:49:42.175Z,506.00
2022-12-23T20:50:42.077Z,504.00
2022-12-23T20:51:42.035Z,504.00
2022-12-23T20:52:42.017Z,502.00
2022-12-23T20:53:41.952Z,503.00
2022-12-23T20:54:41.966Z,502.00
2022-12-23T20:55:41.889Z,505.00
2022-12-23T20:56:41.857Z,504.00
2022-12-23T20:57:41.827Z,502.00
2022-12-23T20:58:41.828Z,507.00
2022-12-23T20:59:41.752Z,503.00
2022-12-23T21:00:41.728Z,504.00
2022-12-23T21:01:41.747Z,504.00
2022-12-23T21:02:41.715Z,507.00
2022-12-23T21:03:41.624Z,506.00
2022-12-23T21:04:41.598Z,503.00
2022-12-23T21:05:41.590Z,505.00
2022-12-23T21:06:41.535Z,505.00
2022-12-23T21:07:41.507Z,505.00
2022-12-23T21:08:41.462Z,505.00
2022-12-23T21:09:41.425Z,501.00
2022-12-23T21:10:41.413Z,505.00
2022-12-23T21:11:41.352Z,502.00
2022-12-23T21:12:41.340Z,503.00
2022-12-23T21:13:41.297Z,508.00
2022-12-23T21:14:41.266Z,504.00
2022-12-23T21:15:41.306Z,505.00
2022-12-23T21:16:41.327Z,502.00
2022-12-23T21:17:41.171Z,500.00
2022-12-23T21:18:41.181Z,507.00
2022-12-23T21:19:41.097Z,502.00
2022-12-23T21:20:41.072Z,501.00
2022-12-23T21:21:41.030Z,506.00
2022-12-23T21:22:40.997Z,502.00
2022-12-23T21:23:40.984Z,505.00
2022-12-23T21:24:40.961Z,507.00
2022-12-23T21:25:40.916Z,502.00
2022-12-23T21:26:40.885Z,502.00
2022-12-23T21:27:40.877Z,502.00
2022-12-23T21:28:40.852Z,506.00
2022-12-23T21:29:40.830Z,507.00
2022-12-23T21:30:40.787Z,508.00
2022-12-23T21:31:40.897Z,504.00
2022-12-23T21:32:40.740Z,501.00
2022-12-23T21:33:40.699Z,505.00
2022-12-23T21:34:40.659Z,505.00
2022-12-23T21:35:40.662Z,505.00
2022-12-23T21:36:40.634Z,507.00
2022-12-23T21:37:40.581Z,501.00
2022-12-23T21:38:40.564Z,510.00
2022-12-23T21:39:40.539Z,509.00
2022-12-23T21:40:40.505Z,508.00
2022-12-23T21:41:40.473Z,507.00
2022-12-23T21:42:40.439Z,501.00
2022-12-23T21:43:40.412Z,505.00
2022-12-23T21:44:40.394Z,508.00
2022-12-23T21:45:40.369Z,506.00
2022-12-23T21:46:40.354Z,507.00
2022-12-23T21:47:40.320Z,507.00
2022-12-23T21:48:40.288Z,507.00
2022-12-23T21:49:40.241Z,506.00
2022-12-23T21:50:40.223Z,506.00
2022-12-23T21:51:41.455Z,504.00
2022-12-23T21:52:40.146Z,504.00
2022-12-23T23:16:37.481Z,503.00
2022-12-23T23:17:37.412Z,506.00
2022-12-23T23:18:37.397Z,503.00
2022-12-23T23:20:37.325Z,504.00
2022-12-23T23:21:37.295Z,505.00
2022-12-23T23:22:37.301Z,507.00
2022-12-23T23:23:37.237Z,504.00
2022-12-23T23:24:37.210Z,507.00
2022-12-23T23:25:37.185Z,505.00
2022-12-23T23:26:37.153Z,501.00
2022-12-23T23:27:37.154Z,502.00
2022-12-23T23:28:37.090Z,503.00
2022-12-23T23:29:37.086Z,505.00
2022-12-23T23:30:37.034Z,503.00
2022-12-23T23:31:42.447Z,507.00
2022-12-23T23:33:36.963Z,507.00
2022-12-23T23:34:36.928Z,503.00
2022-12-23T23:35:36.873Z,500.00
2022-12-23T23:36:36.901Z,502.00
2022-12-23T23:37:36.830Z,505.00
2022-12-23T23:38:36.789Z,507.00
2022-12-23T23:39:36.758Z,505.00
2022-12-23T23:40:36.732Z,501.00
2022-12-23T23:41:36.710Z,506.00
2022-12-23T23:42:36.704Z,507.00
2022-12-23T23:43:36.619Z,507.00
2022-12-23T23:44:36.586Z,506.00
2022-12-23T23:45:36.597Z,508.00
2022-12-23T23:46:36.560Z,509.00
2022-12-23T23:47:36.485Z,510.00
2022-12-23T23:48:36.445Z,506.00
2022-12-23T23:49:36.415Z,504.00
2022-12-23T23:50:36.369Z,502.00
2022-12-23T23:51:36.350Z,505.00